Time;durP1;ratioP1;P1;durP2;ratioP2;P2;SDS_P1;SDS_P2;PMS_P1;PMS_P2;Temp;Humidity;BMP_temperature;BMP_pressure;BME280_temperature;BME280_humidity;BME280_pressure;Samples;Min_cycle;Max_cycle;Signal;HPM_P1;HPM_P2
2023/01/13 00:00:39;;;;;;;3.00;2.67;;;;;;;-143.84;98.24;44274.16;5093270;28;20426;-85
2023/01/13 00:03:06;;;;;;;2.23;1.97;;;;;;;-143.84;97.95;44270.34;5093373;28;20857;-85
2023/01/13 00:05:34;;;;;;;3.23;2.60;;;;;;;-143.84;98.07;44272.25;5093785;28;20528;-84
2023/01/13 00:08:05;;;;;;;1.90;1.80;;;;;;;-143.84;98.19;44266.53;5092623;28;20428;-85
2023/01/13 00:10:32;;;;;;;2.10;2.00;;;;;;;-143.84;97.38;44255.13;5090487;28;20460;-85
2023/01/13 00:13:00;;;;;;;2.10;1.90;;;;;;;-143.84;97.58;44251.31;5090423;28;20477;-85
2023/01/13 00:15:27;;;;;;;2.27;2.17;;;;;;;-143.84;97.55;44264.66;5092603;28;20433;-86
2023/01/13 00:17:55;;;;;;;2.20;2.10;;;;;;;-143.84;97.77;44257.03;5092504;28;20487;-85
2023/01/13 00:20:22;;;;;;;2.40;2.20;;;;;;;-143.84;97.47;44258.94;5092237;28;20869;-85
2023/01/13 00:22:49;;;;;;;2.10;2.00;;;;;;;-143.84;97.87;44253.22;5092172;28;20434;-85
2023/01/13 00:25:18;;;;;;;2.90;2.70;;;;;;;-143.84;97.74;44253.22;5092187;28;20489;-82
2023/01/13 00:27:46;;;;;;;2.20;2.10;;;;;;;-143.84;97.58;44253.22;5092119;28;20434;-85
2023/01/13 00:30:13;;;;;;;2.17;2.07;;;;;;;-143.84;97.95;44255.13;5092004;28;20449;-84
2023/01/13 00:32:40;;;;;;;2.00;1.90;;;;;;;-143.84;97.95;44253.22;5092319;28;21229;-84
2023/01/13 00:35:09;;;;;;;1.97;1.87;;;;;;;-143.84;97.41;44249.41;5092363;28;20433;-84
2023/01/13 00:37:38;;;;;;;2.20;2.10;;;;;;;-143.84;97.44;44251.31;5092075;28;20981;-84
2023/01/13 00:40:06;;;;;;;2.00;1.83;;;;;;;-143.84;98.02;44255.13;5091940;28;20441;-84
2023/01/13 00:45:19;;;;;;;1.93;1.83;;;;;;;-143.84;97.86;44262.75;5092300;28;20920;-84
2023/01/13 00:47:47;;;;;;;2.70;2.50;;;;;;;-143.84;98.26;44260.84;5091895;28;20425;-84
2023/01/13 00:50:14;;;;;;;2.80;2.60;;;;;;;-143.84;98.24;44266.53;5092063;28;20449;-84
2023/01/13 00:52:41;;;;;;;2.50;2.40;;;;;;;-143.84;97.52;44260.84;5092307;28;20442;-84
2023/01/13 00:55:09;;;;;;;2.00;1.90;;;;;;;-143.84;97.87;44268.44;5091946;28;20431;-84
2023/01/13 00:57:38;;;;;;;3.00;2.43;;;;;;;-143.84;97.67;44272.25;5092242;28;20983;-84
2023/01/13 01:00:07;;;;;;;1.70;1.60;;;;;;;-143.84;98.10;44277.97;5091913;28;20464;-84
2023/01/13 01:02:34;;;;;;;2.30;2.20;;;;;;;-143.84;98.44;44281.78;5092394;28;20524;-85
2023/01/13 01:05:01;;;;;;;2.40;2.30;;;;;;;-143.84;98.40;44287.50;5093275;28;20965;-84
2023/01/13 01:07:28;;;;;;;2.90;2.73;;;;;;;-143.84;97.91;44289.41;5094691;28;20445;-83
2023/01/13 01:09:55;;;;;;;3.20;3.00;;;;;;;-143.84;98.10;44276.06;5095214;28;20536;-83
2023/01/13 01:12:22;;;;;;;2.00;1.90;;;;;;;-143.84;98.42;44276.06;5095368;28;20480;-83
2023/01/13 01:14:51;;;;;;;2.77;2.67;;;;;;;-143.84;97.72;44276.06;5097028;28;20517;-84
2023/01/13 01:17:18;;;;;;;2.37;2.27;;;;;;;-143.84;97.59;44268.44;5096002;28;20450;-85
2023/01/13 01:19:45;;;;;;;2.80;2.40;;;;;;;-143.84;97.77;44260.84;5097956;28;20452;-85
2023/01/13 01:22:12;;;;;;;2.80;2.50;;;;;;;-143.84;97.70;44266.53;5096908;28;20435;-85
2023/01/13 01:24:39;;;;;;;2.70;2.50;;;;;;;-143.84;97.99;44264.66;5096768;28;20440;-85
2023/01/13 01:27:06;;;;;;;2.60;2.40;;;;;;;-143.84;98.15;44257.03;5096535;28;20430;-85
2023/01/13 01:29:33;;;;;;;3.00;2.80;;;;;;;-143.84;97.60;44264.66;5097018;28;20435;-85
2023/01/13 01:32:02;;;;;;;3.00;2.80;;;;;;;-143.84;97.44;44247.50;5098589;28;20430;-84
2023/01/13 01:34:29;;;;;;;2.50;2.30;;;;;;;-143.84;97.94;44249.41;5097885;28;20469;-85
2023/01/13 01:36:56;;;;;;;2.90;2.70;;;;;;;-143.84;97.54;44251.31;5097469;28;20892;-85
2023/01/13 01:39:24;;;;;;;3.00;2.80;;;;;;;-143.84;97.28;44247.50;5097063;28;20920;-84
2023/01/13 01:44:59;;;;;;;2.57;2.30;;;;;;;-143.84;97.72;44258.94;5097657;28;20427;-85
2023/01/13 01:47:31;;;;;;;3.00;2.80;;;;;;;-143.84;97.92;44251.31;5097344;28;20932;-84
2023/01/13 01:49:59;;;;;;;3.60;3.30;;;;;;;-143.84;97.46;44251.31;5096903;28;20413;-85
2023/01/13 01:52:31;;;;;;;5.37;3.43;;;;;;;-143.84;97.52;44257.03;5096026;28;20533;-85
2023/01/13 01:55:03;;;;;;;3.10;2.90;;;;;;;-143.84;97.99;44255.13;5095252;28;20466;-85
2023/01/13 01:57:44;;;;;;;2.90;2.70;;;;;;;-143.84;97.61;44257.03;5095900;28;20483;-84
2023/01/13 02:00:12;;;;;;;3.50;3.20;;;;;;;-143.84;97.87;44243.69;5097266;28;20443;-84
2023/01/13 02:02:43;;;;;;;3.10;2.90;;;;;;;-143.84;97.97;44251.31;5096667;28;20429;-84
2023/01/13 02:05:10;;;;;;;8.33;3.50;;;;;;;-143.84;97.75;44251.31;5097224;28;20432;-84
2023/01/13 02:07:40;;;;;;;3.37;3.17;;;;;;;-143.84;98.06;44257.03;5097555;28;20850;-84
2023/01/13 02:10:10;;;;;;;3.60;3.40;;;;;;;-143.84;97.46;44257.03;5096383;28;20505;-84
2023/01/13 02:12:39;;;;;;;3.10;2.90;;;;;;;-143.84;97.89;44249.41;5097180;28;20484;-84
2023/01/13 02:15:11;;;;;;;3.23;3.03;;;;;;;-143.84;98.01;44260.84;5097020;28;20880;-84
2023/01/13 02:18:09;;;;;;;3.27;3.07;;;;;;;-143.84;97.87;44260.84;5097002;28;20429;-84
2023/01/13 02:20:56;;;;;;;3.17;2.97;;;;;;;-143.84;97.84;44260.84;5096846;28;20942;-84
2023/01/13 02:27:22;;;;;;;4.10;3.67;;;;;;;-143.84;98.00;44260.84;5094779;28;20426;-85
2023/01/13 02:33:09;;;;;;;2.50;2.40;;;;;;;-143.84;97.97;44260.84;5096732;28;20926;-84
2023/01/13 02:35:40;;;;;;;3.30;3.10;;;;;;;-143.84;97.67;44272.25;5096334;28;20482;-84
2023/01/13 02:38:11;;;;;;;3.70;3.40;;;;;;;-143.84;97.75;44270.34;5095319;28;20490;-84
2023/01/13 02:40:42;;;;;;;3.03;2.83;;;;;;;-143.84;97.56;44255.13;5094552;28;20488;-84
2023/01/13 02:46:10;;;;;;;2.93;2.63;;;;;;;-143.84;97.83;44249.41;5094335;28;20441;-84
2023/01/13 02:48:40;;;;;;;3.10;2.90;;;;;;;-143.84;97.35;44245.59;5095018;28;20449;-84
2023/01/13 02:51:12;;;;;;;2.70;2.50;;;;;;;-143.84;97.57;44249.41;5095032;28;20885;-84
2023/01/13 02:53:46;;;;;;;2.63;2.43;;;;;;;-143.84;97.22;44255.13;5095837;28;20467;-84
2023/01/13 02:56:16;;;;;;;3.03;2.83;;;;;;;-143.84;97.75;44257.03;5095395;28;20842;-83
2023/01/13 02:58:46;;;;;;;2.43;2.23;;;;;;;-143.84;97.46;44249.41;5095121;28;20472;-84
2023/01/13 03:01:15;;;;;;;2.77;2.57;;;;;;;-143.84;97.92;44249.41;5093789;28;20432;-83
2023/01/13 03:03:42;;;;;;;2.27;2.17;;;;;;;-143.84;97.18;44249.41;5094391;28;20960;-83
2023/01/13 03:06:33;;;;;;;2.70;2.50;;;;;;;-143.84;97.87;44251.31;5093793;28;20424;-83
2023/01/13 03:09:07;;;;;;;2.03;1.93;;;;;;;-143.84;97.75;44257.03;5095264;28;20427;-85
2023/01/13 03:11:45;;;;;;;2.40;2.30;;;;;;;-143.84;97.35;44257.03;5095486;28;20537;-88
2023/01/13 03:14:26;;;;;;;2.43;2.23;;;;;;;-143.84;97.85;44245.59;5095777;28;20468;-86
2023/01/13 03:17:11;;;;;;;2.60;2.40;;;;;;;-143.84;97.59;44251.31;5095589;28;20516;-84
2023/01/13 03:19:44;;;;;;;1.90;1.80;;;;;;;-143.84;97.40;44258.94;5093905;28;20457;-84
2023/01/13 03:22:21;;;;;;;2.13;2.03;;;;;;;-143.84;97.95;44257.03;5094054;28;20425;-83
2023/01/13 03:24:51;;;;;;;2.37;2.17;;;;;;;-143.84;97.87;44262.75;5093491;28;20427;-84
2023/01/13 03:27:25;;;;;;;2.00;1.90;;;;;;;-143.84;97.78;44272.25;5093157;28;20428;-84
2023/01/13 03:29:58;;;;;;;2.20;2.10;;;;;;;-143.84;98.15;44276.06;5093540;28;20432;-84
2023/01/13 03:32:30;;;;;;;1.80;1.70;;;;;;;-143.84;97.67;44277.97;5091546;28;20428;-83
2023/01/13 03:35:02;;;;;;;2.23;2.03;;;;;;;-143.84;98.49;44279.88;5092219;28;20538;-83
2023/01/13 03:37:34;;;;;;;2.70;2.50;;;;;;;-143.84;98.15;44283.69;5093974;28;20427;-83
2023/01/13 03:40:07;;;;;;;2.53;2.33;;;;;;;-143.84;97.87;44279.88;5094016;28;20497;-83
2023/01/13 03:42:38;;;;;;;2.47;2.27;;;;;;;-143.84;97.73;44276.06;5094611;28;20429;-83
2023/01/13 03:45:08;;;;;;;2.33;2.23;;;;;;;-143.84;98.43;44287.50;5094630;28;20436;-83
2023/01/13 03:47:43;;;;;;;2.57;2.37;;;;;;;-143.84;97.95;44291.28;5094466;28;20949;-83
2023/01/13 03:50:15;;;;;;;2.53;2.33;;;;;;;-143.84;98.69;44298.91;5093957;28;20426;-85
2023/01/13 03:52:45;;;;;;;2.97;2.63;;;;;;;-143.84;98.52;44306.53;5095687;28;20435;-86
2023/01/13 03:55:17;;;;;;;2.93;2.63;;;;;;;-143.84;99.03;44317.94;5095934;28;20460;-84
2023/01/13 03:57:53;;;;;;;3.03;2.70;;;;;;;-143.84;98.97;44319.84;5094293;28;20932;-81
2023/01/13 04:00:25;;;;;;;2.50;2.30;;;;;;;-143.84;98.83;44321.75;5094502;28;20773;-85
2023/01/13 04:02:57;;;;;;;2.43;2.23;;;;;;;-143.84;98.78;44335.09;5092897;28;20485;-80
2023/01/13 04:05:25;;;;;;;3.43;3.13;;;;;;;-143.84;99.00;44344.59;5094134;28;20432;-85
2023/01/13 04:08:01;;;;;;;2.10;2.00;;;;;;;-143.84;99.10;44350.31;5092689;28;20433;-81
2023/01/13 04:10:32;;;;;;;2.80;2.60;;;;;;;-143.84;99.31;44357.94;5093126;28;20453;-83
2023/01/13 04:13:04;;;;;;;2.53;2.33;;;;;;;-143.84;99.56;44361.72;5093101;28;20471;-87
2023/01/13 04:15:36;;;;;;;3.57;3.07;;;;;;;-143.84;98.83;44375.06;5093150;28;20980;-85
2023/01/13 04:18:21;;;;;;;3.33;3.13;;;;;;;-143.84;98.97;44375.06;5095043;28;20430;-84
2023/01/13 04:20:50;;;;;;;2.80;2.63;;;;;;;-143.84;99.15;44386.47;5090520;28;20509;-84
2023/01/13 04:23:18;;;;;;;2.50;2.30;;;;;;;-143.84;99.68;44399.81;5095228;28;20432;-88
2023/01/13 04:25:46;;;;;;;3.97;3.30;;;;;;;-143.84;99.81;44399.81;5103169;28;20440;-88
2023/01/13 04:28:14;;;;;;;2.73;2.53;;;;;;;-143.84;99.35;44397.91;5098392;28;20962;-87
2023/01/13 04:30:42;;;;;;;3.07;2.77;;;;;;;-143.84;99.73;44405.53;5093729;28;20491;-84
2023/01/13 04:33:09;;;;;;;3.00;2.60;;;;;;;-143.84;99.40;44411.22;5092412;28;20450;-82
2023/01/13 04:35:38;;;;;;;3.23;2.50;;;;;;;-143.84;99.73;44413.13;5092882;28;20848;-84
2023/01/13 04:38:08;;;;;;;3.67;3.37;;;;;;;-143.84;99.75;44409.34;5092266;28;20491;-85
2023/01/13 04:40:35;;;;;;;4.30;3.90;;;;;;;-143.84;99.76;44415.03;5092129;28;20866;-82
2023/01/13 04:43:03;;;;;;;3.30;3.00;;;;;;;-143.84;99.86;44413.13;5092211;28;20438;-85
2023/01/13 04:45:30;;;;;;;2.93;2.73;;;;;;;-143.84;100.00;44415.03;5092117;28;20436;-83
2023/01/13 04:47:58;;;;;;;3.53;3.30;;;;;;;-143.84;99.68;44415.03;5094214;28;20892;-84
2023/01/13 04:50:25;;;;;;;3.10;2.90;;;;;;;-143.84;99.35;44407.44;5096034;28;20421;-82
2023/01/13 04:53:07;;;;;;;3.80;3.03;;;;;;;-143.84;99.40;44413.13;5095365;28;20485;-82
2023/01/13 04:55:34;;;;;;;3.40;3.10;;;;;;;-143.84;99.97;44416.94;5096088;28;20471;-83
2023/01/13 04:58:03;;;;;;;3.47;3.17;;;;;;;-143.84;99.96;44411.22;5096348;28;20428;-82
2023/01/13 05:00:30;;;;;;;3.60;3.30;;;;;;;-143.84;99.60;44413.13;5096361;28;20478;-83
2023/01/13 05:02:59;;;;;;;3.77;3.47;;;;;;;-143.84;99.97;44413.13;5095814;28;20434;-84
2023/01/13 05:05:27;;;;;;;3.60;3.30;;;;;;;-143.84;99.74;44407.44;5095695;28;20939;-82
2023/01/13 05:07:54;;;;;;;3.60;3.30;;;;;;;-143.84;100.00;44420.75;5096078;28;20526;-81
2023/01/13 05:10:23;;;;;;;3.30;3.00;;;;;;;-143.84;99.85;44420.75;5095761;28;20957;-82
2023/01/13 05:18:19;;;;;;;3.90;3.60;;;;;;;-143.84;99.52;44416.94;5095925;28;20411;-83
2023/01/13 05:20:46;;;;;;;3.43;3.13;;;;;;;-143.84;99.30;44416.94;5095932;28;20440;-84
2023/01/13 05:25:59;;;;;;;2.90;2.70;;;;;;;-143.84;99.51;44405.53;5095568;28;20429;-78
2023/01/13 05:28:30;;;;;;;3.50;2.83;;;;;;;-143.84;99.95;44409.34;5095437;28;20447;-81
2023/01/13 05:30:58;;;;;;;3.90;3.60;;;;;;;-143.84;99.96;44409.34;5095281;28;20997;-85
2023/01/13 05:33:25;;;;;;;6.60;3.70;;;;;;;-143.84;99.46;44416.94;5095296;28;20485;-86
2023/01/13 05:35:52;;;;;;;3.00;2.60;;;;;;;-143.84;100.00;44420.75;5095051;28;21010;-85
2023/01/13 05:38:19;;;;;;;5.10;3.10;;;;;;;-143.84;99.83;44420.75;5095174;28;20422;-87
2023/01/13 05:43:33;;;;;;;3.83;3.53;;;;;;;-143.84;100.00;44432.19;5094722;28;20415;-86
2023/01/13 05:46:02;;;;;;;3.60;3.10;;;;;;;-143.84;100.00;44430.28;5094425;28;20588;-86
2023/01/13 05:48:31;;;;;;;5.67;3.43;;;;;;;-143.84;100.00;44434.09;5094494;28;20505;-86
2023/01/13 05:50:59;;;;;;;3.13;2.90;;;;;;;-143.84;99.94;44443.59;5094394;28;20442;-85
2023/01/13 05:53:26;;;;;;;2.97;2.77;;;;;;;-143.84;100.00;44445.50;5094725;28;20435;-83
2023/01/13 05:55:53;;;;;;;3.50;3.20;;;;;;;-143.84;100.00;44447.41;5094302;28;20471;-85
2023/01/13 05:58:22;;;;;;;3.73;3.43;;;;;;;-143.84;99.88;44434.09;5094011;28;20442;-85
2023/01/13 06:00:50;;;;;;;6.40;3.80;;;;;;;-143.84;99.80;44437.88;5093745;28;20514;-85
2023/01/13 06:03:19;;;;;;;3.97;3.57;;;;;;;-143.84;99.93;44434.09;5097215;28;21194;-81
2023/01/13 06:05:47;;;;;;;4.87;4.47;;;;;;;-143.84;100.00;44428.38;5094372;28;20445;-79
2023/01/13 06:08:14;;;;;;;4.23;3.83;;;;;;;-143.84;99.60;44424.56;5094319;28;20960;-81
2023/01/13 06:10:42;;;;;;;4.87;4.37;;;;;;;-143.84;100.00;44422.66;5093908;28;20853;-81
2023/01/13 06:13:09;;;;;;;4.13;3.60;;;;;;;-143.84;99.80;44426.47;5094622;28;20924;-81
2023/01/13 06:15:36;;;;;;;3.70;3.40;;;;;;;-143.84;99.47;44418.84;5094362;28;20474;-81
2023/01/13 06:18:05;;;;;;;5.43;3.40;;;;;;;-143.84;99.38;44413.13;5094734;28;20420;-81
2023/01/13 06:20:33;;;;;;;4.70;4.30;;;;;;;-143.84;99.77;44409.34;5094520;28;20443;-81
2023/01/13 06:23:01;;;;;;;3.60;3.40;;;;;;;-143.84;99.34;44409.34;5094366;28;20426;-84
2023/01/13 06:25:39;;;;;;;4.13;3.77;;;;;;;-143.84;99.57;44401.72;5094442;28;20439;-79
2023/01/13 06:28:07;;;;;;;5.90;3.33;;;;;;;-143.84;99.30;44403.63;5094181;28;20929;-86
2023/01/13 06:30:40;;;;;;;4.40;3.60;;;;;;;-143.84;98.88;44396.00;5093110;28;20858;-79
2023/01/13 06:33:13;;;;;;;4.03;3.63;;;;;;;-143.84;99.51;44392.19;5093875;28;20449;-87
2023/01/13 06:35:44;;;;;;;3.90;3.53;;;;;;;-143.84;99.29;44390.28;5093770;28;21028;-85
2023/01/13 06:38:15;;;;;;;4.77;3.90;;;;;;;-143.84;99.54;44397.91;5094154;28;20457;-86
2023/01/13 06:40:43;;;;;;;4.10;3.63;;;;;;;-143.84;99.64;44399.81;5093734;28;20925;-84
2023/01/13 06:43:16;;;;;;;3.80;3.50;;;;;;;-143.84;99.33;44407.44;5093442;28;21040;-84
2023/01/13 06:45:47;;;;;;;4.80;3.80;;;;;;;-143.84;99.79;44415.03;5093416;28;20437;-85
2023/01/13 06:48:17;;;;;;;4.30;3.87;;;;;;;-143.84;99.58;44407.44;5093938;28;20428;-84
2023/01/13 06:50:45;;;;;;;4.20;3.90;;;;;;;-143.84;99.77;44413.13;5093022;28;20443;-82
2023/01/13 06:53:12;;;;;;;4.60;4.00;;;;;;;-143.84;100.00;44420.75;5093179;28;20506;-84
2023/01/13 06:55:39;;;;;;;4.23;3.83;;;;;;;-143.84;99.32;44418.84;5092095;28;21652;-86
2023/01/13 06:58:07;;;;;;;5.00;3.77;;;;;;;-143.84;99.71;44413.13;5090551;28;20477;-85
2023/01/13 07:00:36;;;;;;;4.13;3.80;;;;;;;-143.84;99.25;44413.13;5091902;28;20450;-84
2023/01/13 07:03:08;;;;;;;3.90;3.33;;;;;;;-143.84;99.25;44418.84;5093492;28;20519;-84
2023/01/13 07:05:37;;;;;;;3.47;3.17;;;;;;;-143.84;99.32;44424.56;5093503;28;20446;-86
2023/01/13 07:08:05;;;;;;;4.50;3.50;;;;;;;-143.84;99.90;44430.28;5093298;28;20848;-85
2023/01/13 07:10:33;;;;;;;4.67;4.27;;;;;;;-143.84;99.64;44420.75;5093203;28;20449;-84
2023/01/13 07:15:54;;;;;;;4.17;3.80;;;;;;;-143.84;99.62;44422.66;5092475;28;20466;-79
2023/01/13 07:18:21;;;;;;;4.67;4.27;;;;;;;-143.84;99.77;44424.56;5092929;28;20445;-83
2023/01/13 07:20:55;;;;;;;4.17;3.77;;;;;;;-143.84;99.69;44415.03;5093085;28;20447;-82
2023/01/13 07:23:22;;;;;;;4.63;4.10;;;;;;;-143.84;99.16;44403.63;5091466;28;20530;-84
2023/01/13 07:25:50;;;;;;;5.30;3.90;;;;;;;-143.84;98.96;44397.91;5092718;28;20570;-85
2023/01/13 07:28:17;;;;;;;4.53;4.13;;;;;;;-143.84;98.97;44405.53;5092419;28;20519;-85
2023/01/13 07:30:45;;;;;;;4.47;4.07;;;;;;;-143.84;98.96;44390.28;5092335;28;20493;-88
2023/01/13 07:33:12;;;;;;;5.53;4.50;;;;;;;-143.84;99.09;44386.47;5092752;28;20447;-83
2023/01/13 07:35:40;;;;;;;5.63;3.90;;;;;;;-143.84;99.12;44394.09;5091812;28;20820;-84
2023/01/13 07:38:09;;;;;;;5.30;4.27;;;;;;;-143.84;99.01;44396.00;5092074;28;20459;-83
2023/01/13 07:40:36;;;;;;;4.97;3.93;;;;;;;-143.84;99.00;44384.59;5092460;28;20436;-82
2023/01/13 07:45:48;;;;;;;2.77;2.67;;;;;;;-143.84;98.97;44378.88;5092522;28;20415;-83
2023/01/13 07:48:15;;;;;;;3.87;3.57;;;;;;;-143.84;98.85;44376.97;5092395;28;20862;-83
2023/01/13 07:50:42;;;;;;;4.57;3.67;;;;;;;-143.84;98.92;44375.06;5089462;28;20482;-85
2023/01/13 07:53:10;;;;;;;4.23;3.83;;;;;;;-143.84;99.20;44380.78;5092400;28;21008;-84
2023/01/13 07:55:42;;;;;;;3.93;3.63;;;;;;;-143.84;99.14;44380.78;5091976;28;20533;-83
2023/01/13 07:58:09;;;;;;;3.87;3.57;;;;;;;-143.84;98.57;44359.84;5091763;28;20443;-83
2023/01/13 08:00:37;;;;;;;6.40;4.27;;;;;;;-143.84;98.52;44354.13;5092107;28;20524;-83
2023/01/13 08:03:05;;;;;;;4.30;3.90;;;;;;;-143.84;98.47;44340.78;5092594;28;20512;-81
2023/01/13 08:05:32;;;;;;;6.17;4.53;;;;;;;-143.84;98.67;44338.88;5092209;28;20459;-82
2023/01/13 08:07:59;;;;;;;4.30;3.90;;;;;;;-143.84;98.65;44344.59;5092392;28;20960;-82
2023/01/13 08:10:27;;;;;;;3.70;3.40;;;;;;;-143.84;98.46;44348.41;5092187;28;20873;-82
2023/01/13 08:15:38;;;;;;;7.00;4.97;;;;;;;-143.84;98.72;44327.47;5091798;28;20587;-83
2023/01/13 08:18:06;;;;;;;4.33;3.93;;;;;;;-143.84;98.36;44335.09;5092142;28;20499;-83
2023/01/13 08:20:33;;;;;;;3.63;3.33;;;;;;;-143.84;98.21;44327.47;5091538;28;20501;-82
2023/01/13 08:23:01;;;;;;;5.83;5.23;;;;;;;-143.84;98.59;44319.84;5091788;28;20428;-83
2023/01/13 08:25:30;;;;;;;5.07;4.40;;;;;;;-143.84;98.21;44319.84;5092380;28;20440;-83
2023/01/13 08:27:59;;;;;;;4.50;4.10;;;;;;;-143.84;98.18;44321.75;5092236;28;20459;-86
2023/01/13 08:30:27;;;;;;;4.30;4.00;;;;;;;-143.84;98.08;44310.34;5092324;28;20477;-82
2023/01/13 08:32:54;;;;;;;5.70;5.13;;;;;;;-143.84;98.58;44314.13;5092920;28;20434;-86
2023/01/13 08:35:21;;;;;;;12.10;7.90;;;;;;;-143.84;98.11;44308.44;5092579;28;20479;-79
2023/01/13 08:37:48;;;;;;;14.20;9.13;;;;;;;-143.84;97.90;44298.91;5091815;28;20938;-83
2023/01/13 08:40:16;;;;;;;6.60;5.60;;;;;;;-143.84;97.81;44287.50;5091881;28;20434;-81
2023/01/13 08:42:45;;;;;;;5.57;5.00;;;;;;;-143.84;98.16;44293.19;5091777;28;20854;-82
2023/01/13 08:45:14;;;;;;;5.90;5.20;;;;;;;-143.84;98.20;44287.50;5091970;28;20790;-83
2023/01/13 08:47:41;;;;;;;7.00;5.40;;;;;;;-143.84;98.08;44291.28;5092143;28;20427;-83
2023/01/13 08:50:10;;;;;;;6.00;5.40;;;;;;;-143.84;98.38;44297.00;5092047;28;20441;-82
2023/01/13 08:52:37;;;;;;;5.53;4.97;;;;;;;-143.84;98.15;44291.28;5091833;28;20439;-81
2023/01/13 08:55:05;;;;;;;6.80;5.33;;;;;;;-143.84;98.16;44283.69;5091538;28;20443;-81
2023/01/13 08:57:32;;;;;;;6.50;5.20;;;;;;;-143.84;97.86;44295.09;5091878;28;20431;-82
2023/01/13 09:00:01;;;;;;;11.03;6.30;;;;;;;-143.84;97.86;44302.72;5091888;28;20440;-83
2023/01/13 09:02:28;;;;;;;5.50;4.80;;;;;;;-143.84;98.15;44314.13;5091802;28;20438;-80
2023/01/13 09:04:55;;;;;;;5.70;5.20;;;;;;;-143.84;98.16;44317.94;5091629;28;20493;-81
2023/01/13 09:07:22;;;;;;;8.10;5.80;;;;;;;-143.84;98.15;44317.94;5091699;28;20438;-81
2023/01/13 09:09:50;;;;;;;8.77;6.63;;;;;;;-143.84;98.03;44310.34;5091979;28;20428;-83
2023/01/13 09:15:05;;;;;;;6.90;6.00;;;;;;;-143.84;97.87;44298.91;5091656;28;20407;-82
2023/01/13 09:17:32;;;;;;;8.80;6.07;;;;;;;-143.84;97.81;44291.28;5091630;28;20467;-84
2023/01/13 09:19:59;;;;;;;6.70;5.80;;;;;;;-143.84;98.24;44302.72;5091467;28;20447;-83
2023/01/13 09:22:27;;;;;;;6.93;5.50;;;;;;;-143.84;97.96;44285.59;5091511;28;20436;-83
2023/01/13 09:24:55;;;;;;;7.60;6.13;;;;;;;-143.84;97.66;44291.28;5091865;28;20489;-81
2023/01/13 09:27:23;;;;;;;8.00;6.27;;;;;;;-143.84;97.67;44279.88;5091100;28;20440;-81
2023/01/13 09:29:50;;;;;;;7.83;6.20;;;;;;;-143.84;97.53;44274.16;5091095;28;20941;-82
2023/01/13 09:32:19;;;;;;;7.80;5.73;;;;;;;-143.84;97.52;44268.44;5091571;28;20515;-82
2023/01/13 09:35:01;;;;;;;8.77;6.23;;;;;;;-143.84;97.60;44266.53;5093560;28;20424;-83
2023/01/13 09:37:29;;;;;;;7.20;6.40;;;;;;;-143.84;97.65;44274.16;5095379;28;20487;-82
2023/01/13 09:39:57;;;;;;;11.70;6.37;;;;;;;-143.84;97.98;44277.97;5095442;28;20524;-86
2023/01/13 09:45:23;;;;;;;15.90;5.23;;;;;;;-143.84;97.27;44251.31;5094719;28;20423;-84
2023/01/13 09:47:57;;;;;;;14.93;6.00;;;;;;;-143.84;97.29;44245.59;5095167;28;20430;-85
2023/01/13 09:50:50;;;;;;;7.00;6.30;;;;;;;-143.84;97.27;44249.41;5095177;28;20489;-84
2023/01/13 09:53:22;;;;;;;6.40;5.50;;;;;;;-143.84;97.06;44258.94;5079629;28;20846;-83
2023/01/13 09:55:49;;;;;;;7.30;6.17;;;;;;;-143.84;97.47;44264.66;5094838;28;20472;-83
2023/01/13 09:58:18;;;;;;;8.60;6.27;;;;;;;-143.84;97.75;44268.44;5094759;28;20451;-83
2023/01/13 10:00:53;;;;;;;7.13;5.10;;;;;;;-143.84;97.29;44266.53;5094720;28;20922;-83
2023/01/13 10:03:25;;;;;;;7.10;5.57;;;;;;;-143.84;97.30;44270.34;5094697;28;20423;-84
2023/01/13 10:06:03;;;;;;;6.77;5.30;;;;;;;-143.84;97.67;44274.16;5094430;28;20436;-83
2023/01/13 10:08:33;;;;;;;10.07;5.63;;;;;;;-143.84;97.38;44268.44;5094015;28;20453;-82
2023/01/13 10:13:12;;;;;;;8.50;5.60;;;;;;;-143.84;97.00;44257.03;5089919;28;20489;-83
2023/01/13 10:14:00;;;;;;;8.70;5.57;;;;;;;-143.84;96.95;44253.22;5092774;28;20863;-85
2023/01/13 10:16:40;;;;;;;10.57;6.13;;;;;;;-143.84;97.24;44253.22;5093845;28;20467;-84
2023/01/13 10:19:17;;;;;;;5.67;5.07;;;;;;;-143.84;97.12;44249.41;5095621;28;20559;-87
2023/01/13 10:22:02;;;;;;;6.70;6.00;;;;;;;-143.84;96.85;44238.00;5094276;28;20502;-82
2023/01/13 10:24:45;;;;;;;8.70;5.37;;;;;;;-143.84;96.83;44230.38;5093179;28;20440;-81
2023/01/13 10:27:18;;;;;;;7.10;6.00;;;;;;;-143.84;96.64;44226.56;5091963;28;20501;-79
2023/01/13 10:29:45;;;;;;;5.87;5.27;;;;;;;-143.84;96.75;44226.56;5093243;28;20495;-79
2023/01/13 10:32:13;;;;;;;6.80;6.17;;;;;;;-143.84;96.58;44234.19;5094176;28;20918;-80
2023/01/13 10:34:48;;;;;;;8.07;6.80;;;;;;;-143.84;96.61;44236.09;5094752;28;20444;-79
2023/01/13 10:37:21;;;;;;;7.73;5.50;;;;;;;-143.84;96.85;44245.59;5094673;28;20513;-82
2023/01/13 10:39:50;;;;;;;8.40;5.97;;;;;;;-143.84;96.67;44247.50;5094573;28;20436;-80
2023/01/13 10:42:20;;;;;;;8.20;6.00;;;;;;;-143.84;96.57;44226.56;5096950;28;20497;-86
2023/01/13 10:44:49;;;;;;;7.33;6.10;;;;;;;-143.84;96.41;44222.75;5091908;28;20464;-85
2023/01/13 10:47:22;;;;;;;6.00;5.50;;;;;;;-143.84;96.35;44222.75;5094027;28;20440;-88
2023/01/13 10:50:22;;;;;;;9.90;6.83;;;;;;;-143.84;96.33;44217.06;5094098;28;20456;-84
2023/01/13 10:52:58;;;;;;;7.00;5.73;;;;;;;-143.84;96.16;44207.53;5094199;28;20435;-87
2023/01/13 10:55:29;;;;;;;6.37;5.63;;;;;;;-143.84;95.83;44201.81;5093799;28;20424;-84
2023/01/13 10:57:57;;;;;;;6.80;5.80;;;;;;;-143.84;95.84;44203.72;5093468;28;20475;-85
2023/01/13 11:00:29;;;;;;;5.97;5.00;;;;;;;-143.84;95.72;44198.00;5093524;28;20431;-85
2023/01/13 11:03:15;;;;;;;11.53;6.53;;;;;;;-143.84;95.81;44203.72;5092835;28;20436;-85
2023/01/13 11:05:51;;;;;;;7.03;5.33;;;;;;;-143.84;95.57;44201.81;5092853;28;20440;-85
2023/01/13 11:08:21;;;;;;;9.13;6.30;;;;;;;-143.84;95.82;44199.91;5092756;28;20921;-85
2023/01/13 11:10:50;;;;;;;6.27;5.67;;;;;;;-143.84;95.66;44199.91;5092687;28;20456;-85
2023/01/13 11:13:22;;;;;;;6.60;6.00;;;;;;;-143.84;95.45;44192.31;5093009;28;20428;-85
2023/01/13 11:15:55;;;;;;;5.80;5.23;;;;;;;-143.84;95.02;44178.97;5092700;28;20450;-85
2023/01/13 11:18:28;;;;;;;10.63;6.10;;;;;;;-143.84;95.33;44188.50;5092693;28;20918;-85
2023/01/13 11:20:59;;;;;;;5.30;4.77;;;;;;;-143.84;94.50;44165.66;5092806;28;20987;-82
2023/01/13 11:23:32;;;;;;;6.00;4.97;;;;;;;-143.84;94.58;44167.56;5092911;28;20962;-82
2023/01/13 11:26:04;;;;;;;6.10;5.30;;;;;;;-143.84;94.52;44158.03;5092746;28;20493;-82
2023/01/13 11:28:39;;;;;;;7.10;6.40;;;;;;;-143.84;94.52;44159.94;5092806;28;20852;-82
2023/01/13 11:31:15;;;;;;;9.60;6.50;;;;;;;-143.84;94.37;44159.94;5092825;28;20435;-81
2023/01/13 11:33:48;;;;;;;7.23;5.77;;;;;;;-143.84;94.00;44158.03;5093551;28;20459;-78
2023/01/13 11:36:23;;;;;;;6.70;5.80;;;;;;;-143.84;93.97;44156.13;5093125;28;20467;-80
2023/01/13 11:38:53;;;;;;;6.47;5.23;;;;;;;-143.84;94.08;44150.41;5092901;28;20918;-79
2023/01/13 11:41:43;;;;;;;7.87;6.20;;;;;;;-143.84;94.29;44156.13;5092763;28;20436;-81
2023/01/13 11:44:20;;;;;;;8.60;5.93;;;;;;;-143.84;93.83;44148.53;5092662;28;20801;-80
2023/01/13 11:46:50;;;;;;;9.30;6.77;;;;;;;-143.84;94.21;44156.13;5092924;28;20431;-82
2023/01/13 11:49:26;;;;;;;7.70;6.67;;;;;;;-143.84;93.72;44150.41;5092618;28;20953;-82
2023/01/13 11:52:00;;;;;;;7.83;6.50;;;;;;;-143.84;93.42;44140.91;5092960;28;20888;-84
2023/01/13 11:54:58;;;;;;;9.77;6.93;;;;;;;-143.84;92.95;44129.47;5092563;28;21237;-85
2023/01/13 11:58:00;;;;;;;10.60;6.80;;;;;;;-143.84;93.05;44127.56;5092148;28;20479;-87
2023/01/13 12:00:36;;;;;;;9.80;6.90;;;;;;;-143.84;92.91;44125.69;5041924;28;20485;-85
2023/01/13 12:03:20;;;;;;;9.90;8.40;;;;;;;-143.84;93.26;44133.28;5092766;28;20427;-84
2023/01/13 12:06:01;;;;;;;7.77;6.77;;;;;;;-143.84;92.95;44133.28;5092759;28;20428;-83
2023/01/13 12:08:59;;;;;;;9.80;6.77;;;;;;;-143.84;93.41;44131.38;5092596;28;20519;-84
2023/01/13 12:11:32;;;;;;;10.20;7.40;;;;;;;-143.84;93.23;44140.91;5092388;28;20517;-83
2023/01/13 12:14:14;;;;;;;12.23;7.90;;;;;;;-143.84;92.93;44119.97;5092250;28;20432;-82